Hovedside
METAR-TAF:

METAR-TAF

Lufthavner :

Västerås, Sverige

Västerås lufthavn

breddegrad: 59-35N, lengdegrad: 016-38E, høyde over havet: 6 m

Gjeldene værobservasjon

Denne rapporten ble laget for 1 time og 7 minutter siden, klokken 09:50 UTC
Vind 6 kt fra Sør, skiftende mellom Sør-sørøst og Sør-sørvest
Temperatur 8°C
Luftfuktighet 42%
Trykk 1008 hPa
Sikt 10 km eller mer
Få skyer i en høyde av 4500 ft

METAR: ESOW 270950Z 18006KT 150V210 9999 FEW045 08/M04 Q1008

Tid: 12:57 (10:57 UTC)

Varsel

Denne rapporten ble laget for 2 timer og 27 minutter siden, klokken 08:30 UTC
Varsel gyldig fra 27. klokken 09 UTC til 27. klokken 17 UTC
Vind 5 kt fra Vest
Sikt 10 km eller mer
ingen skyer under 1500 m og ingen bygeskyer
Midlertidig
fra 27. klokken 10 UTC til 27. klokken 16 UTC
Brutte skyer i en høyde av 4000 ft, Bygeskyer.
regnbyger, lett hagl eller graupel

TAF: ESOW 270830Z 2709/2717 27005KT CAVOK TEMPO 2710/2716 SHRAGS BKN040CB

Værobservasjoner og værvarsel for over 4000 flyplasser (METAR- og TAF-rapporter).

Tilgjengelige stasjoner er representert av de røde og gule prikkene på kartet.

Hold musepekeren over prikken for å se navnet på stasjonen.

Klikk så for å se værobservasjoner og -varsler.

For å forandre kartet kan du klikke på den grønne knappen med svart kryss for å zoome inn, på den grønne knappen med strek for å zoome ut, eller på de grønne pilene for å se tilstøtende kart.


METAR-TAF: